Time;durP1;ratioP1;P1;durP2;ratioP2;P2;SDS_P1;SDS_P2;PMS_P1;PMS_P2;Temp;Humidity;BMP_temperature;BMP_pressure;BME280_temperature;BME280_humidity;BME280_pressure;Samples;Min_cycle;Max_cycle;Signal;HPM_P1;HPM_P2
2023/03/26 05:00:19;;;;;;;7.20;1.65;;;9.60;99.00;;;;;;7406050;23;20019;-80
2023/03/26 05:03:21;;;;;;;5.18;1.38;;;9.50;98.30;;;;;;6103672;29;20056;-78
2023/03/26 05:06:24;;;;;;;3.85;1.27;;;9.50;98.20;;;;;;6088299;29;20060;-79
2023/03/26 05:09:26;;;;;;;6.67;1.40;;;9.60;98.40;;;;;;6082216;29;20053;-79
2023/03/26 05:12:28;;;;;;;6.75;1.33;;;9.60;97.70;;;;;;6090092;29;20075;-77
2023/03/26 05:15:31;;;;;;;7.80;1.38;;;9.70;98.80;;;;;;6105464;29;20108;-79
2023/03/26 05:18:33;;;;;;;7.82;1.40;;;9.70;98.50;;;;;;6105451;29;20056;-77
2023/03/26 05:21:35;;;;;;;5.97;1.50;;;9.80;97.70;;;;;;6101798;29;20051;-80
2023/03/26 05:24:37;;;;;;;8.52;1.75;;;9.80;97.70;;;;;;6101032;29;20409;-78
2023/03/26 05:27:39;;;;;;;6.28;1.33;;;9.80;97.50;;;;;;6104666;29;20055;-80
2023/03/26 05:30:43;;;;;;;6.07;1.45;;;9.80;97.90;;;;;;6101965;29;20115;-79
2023/03/26 05:33:47;;;;;;;;;;;9.80;96.90;;;;;;6103261;29;20131;-79
2023/03/26 05:36:49;;;;;;;9.07;1.63;;;9.80;96.50;;;;;;6104124;29;19989;-77
2023/03/26 05:39:53;;;;;;;6.40;1.35;;;9.80;96.40;;;;;;6104696;29;20048;-79
2023/03/26 05:42:55;;;;;;;8.93;1.92;;;9.80;96.10;;;;;;6104549;29;20055;-78
2023/03/26 05:45:59;;;;;;;7.82;1.60;;;9.90;96.50;;;;;;6112471;29;20054;-80
2023/03/26 05:49:00;;;;;;;6.05;1.95;;;10.00;96.10;;;;;;6105341;29;20048;-75
2023/03/26 05:52:02;;;;;;;10.63;1.50;;;9.90;95.20;;;;;;6096627;29;20046;-76
2023/03/26 05:55:06;;;;;;;6.90;1.70;;;9.90;93.80;;;;;;6103109;29;20052;-77
2023/03/26 05:58:08;;;;;;;5.03;1.40;;;9.90;93.60;;;;;;6104244;29;20044;-77
2023/03/26 06:01:15;;;;;;;6.25;1.20;;;9.90;92.80;;;;;;6099404;29;20482;-78
2023/03/26 06:04:18;;;;;;;5.75;1.20;;;10.00;92.80;;;;;;6118580;29;20055;-78
2023/03/26 06:07:20;;;;;;;7.75;1.40;;;10.00;92.10;;;;;;6110681;29;20477;-78
2023/03/26 06:10:22;;;;;;;5.88;1.20;;;10.00;91.90;;;;;;6127871;29;20382;-77
2023/03/26 06:13:24;;;;;;;7.20;1.92;;;10.00;92.10;;;;;;6125464;29;20552;-77
2023/03/26 06:16:28;;;;;;;7.53;1.38;;;10.00;92.50;;;;;;6126815;29;20048;-76
2023/03/26 06:19:30;;;;;;;6.05;1.20;;;9.90;92.60;;;;;;6126780;29;20071;-77
2023/03/26 06:22:32;;;;;;;7.72;1.45;;;10.00;92.60;;;;;;6127531;29;20478;-77
2023/03/26 06:25:33;;;;;;;6.72;1.45;;;10.10;92.40;;;;;;6126045;29;20054;-80
2023/03/26 06:28:35;;;;;;;7.43;1.55;;;10.10;92.50;;;;;;6126323;29;20145;-76
2023/03/26 06:31:39;;;;;;;4.20;1.48;;;10.10;92.70;;;;;;6127989;29;20489;-75
2023/03/26 06:34:41;;;;;;;5.30;1.25;;;10.20;92.50;;;;;;6119788;29;20405;-79
2023/03/26 06:37:43;;;;;;;7.45;1.65;;;10.00;92.80;;;;;;6114576;29;20516;-78
2023/03/26 06:40:45;;;;;;;8.05;1.45;;;10.00;93.00;;;;;;6120548;29;20066;-78
2023/03/26 06:43:47;;;;;;;5.47;1.45;;;10.00;93.10;;;;;;6126068;29;20397;-77
2023/03/26 06:46:50;;;;;;;6.72;1.58;;;10.00;93.20;;;;;;6127490;29;20073;-76
2023/03/26 06:49:52;;;;;;;8.60;1.90;;;9.90;93.50;;;;;;6124862;29;20047;-77
2023/03/26 06:52:54;;;;;;;9.23;1.63;;;10.00;93.70;;;;;;6125726;29;20603;-78
2023/03/26 06:55:56;;;;;;;5.47;1.42;;;9.90;94.20;;;;;;6120559;29;20513;-78
2023/03/26 06:58:58;;;;;;;8.43;2.15;;;9.90;94.80;;;;;;6131583;29;20051;-78
2023/03/26 07:02:01;;;;;;;6.57;1.88;;;9.90;95.70;;;;;;6132171;29;20393;-77
2023/03/26 07:05:03;;;;;;;8.25;2.00;;;9.90;96.10;;;;;;6132700;29;20055;-76
2023/03/26 07:08:06;;;;;;;6.95;1.63;;;9.90;96.50;;;;;;6129876;29;20052;-77
2023/03/26 07:11:07;;;;;;;9.13;1.90;;;9.80;96.30;;;;;;6127575;29;20056;-78
2023/03/26 07:14:09;;;;;;;3.80;1.30;;;9.90;97.10;;;;;;6132194;29;20413;-76
2023/03/26 07:17:13;;;;;;;8.95;2.00;;;10.10;97.30;;;;;;6114400;29;20060;-78
2023/03/26 07:20:15;;;;;;;6.28;1.40;;;10.00;97.30;;;;;;6108119;29;20123;-76
2023/03/26 07:23:19;;;;;;;6.22;1.48;;;9.90;97.80;;;;;;6119808;29;20043;-77
2023/03/26 07:26:30;;;;;;;8.05;2.30;;;9.90;97.70;;;;;;6127262;29;20070;-77
2023/03/26 07:29:37;;;;;;;6.78;2.20;;;10.00;98.20;;;;;;6128757;29;20058;-80
2023/03/26 07:32:50;;;;;;;6.43;1.70;;;10.00;98.70;;;;;;6128209;29;20054;-80
2023/03/26 07:36:02;;;;;;;8.55;2.00;;;9.90;99.30;;;;;;6130011;29;20055;-76
2023/03/26 07:39:17;;;;;;;6.60;1.67;;;9.70;99.90;;;;;;6115116;29;20390;-79
2023/03/26 07:42:44;;;;;;;6.82;1.60;;;9.50;99.90;;;;;;6128883;29;20171;-76
2023/03/26 07:45:47;;;;;;;6.82;1.80;;;9.60;99.90;;;;;;6129033;29;20517;-81
2023/03/26 07:48:53;;;;;;;8.07;2.13;;;9.40;99.90;;;;;;6131084;29;20051;-78
2023/03/26 07:51:56;;;;;;;6.43;1.90;;;9.50;99.90;;;;;;6131497;29;20051;-78
2023/03/26 07:54:59;;;;;;;6.93;1.70;;;9.50;99.90;;;;;;6116326;29;20054;-76
2023/03/26 07:58:31;;;;;;;7.03;1.80;;;9.60;99.90;;;;;;6113783;29;20055;-76
2023/03/26 08:01:47;;;;;;;8.38;1.75;;;9.60;99.90;;;;;;6130288;29;20474;-75
2023/03/26 08:05:09;;;;;;;6.18;1.80;;;9.60;99.90;;;;;;6131110;29;20051;-77
2023/03/26 08:08:19;;;;;;;6.78;1.55;;;9.50;99.90;;;;;;6126150;29;20055;-76
2023/03/26 08:11:34;;;;;;;7.97;1.70;;;9.60;99.90;;;;;;6107363;29;20055;-74
2023/03/26 08:14:49;;;;;;;7.18;1.63;;;9.70;99.90;;;;;;6107646;29;20051;-76
2023/03/26 08:17:58;;;;;;;7.63;1.60;;;9.90;99.90;;;;;;6120284;29;20048;-74
2023/03/26 08:21:08;;;;;;;6.75;1.60;;;9.90;99.90;;;;;;6114158;29;20203;-76
2023/03/26 08:24:18;;;;;;;6.78;1.38;;;10.00;99.90;;;;;;6129951;29;20052;-75
2023/03/26 08:27:26;;;;;;;7.68;1.90;;;10.00;99.90;;;;;;6128517;29;20414;-76
2023/03/26 08:30:29;;;;;;;8.80;2.13;;;10.10;99.90;;;;;;6129309;29;20438;-75
2023/03/26 08:33:33;;;;;;;8.45;1.75;;;9.90;99.90;;;;;;6123074;29;20039;-78
2023/03/26 08:36:36;;;;;;;5.50;1.75;;;9.90;99.90;;;;;;6126795;29;20490;-76
2023/03/26 08:39:40;;;;;;;7.25;1.88;;;9.90;99.90;;;;;;6128261;29;20118;-78
2023/03/26 08:43:29;;;;;;;3.85;1.45;;;9.90;99.90;;;;;;6110724;29;20048;-74
2023/03/26 08:47:11;;;;;;;5.63;1.55;;;9.90;99.90;;;;;;6126593;29;20054;-77
2023/03/26 08:50:40;;;;;;;7.15;1.70;;;10.10;99.90;;;;;;6101334;29;20059;-75
2023/03/26 08:54:22;;;;;;;9.88;4.22;;;10.10;99.90;;;;;;6118870;29;20051;-77
2023/03/26 08:58:08;;;;;;;18.10;9.77;;;10.00;99.90;;;;;;6128009;29;20058;-75
2023/03/26 09:02:01;;;;;;;14.07;6.15;;;10.00;99.90;;;;;;6147166;29;20047;-74
2023/03/26 09:05:43;;;;;;;7.80;3.65;;;10.10;99.90;;;;;;6126080;29;20050;-77
2023/03/26 09:09:46;;;;;;;9.52;2.92;;;10.10;99.90;;;;;;6116670;29;20055;-75
2023/03/26 09:13:34;;;;;;;20.10;10.35;;;10.10;99.90;;;;;;6088968;29;20052;-75
2023/03/26 09:17:23;;;;;;;27.27;12.27;;;10.20;99.90;;;;;;6080346;29;20053;-75
2023/03/26 09:21:12;;;;;;;11.77;5.78;;;10.20;99.90;;;;;;6050915;29;20137;-77
2023/03/26 09:25:12;;;;;;;9.20;4.38;;;10.20;99.90;;;;;;6102641;29;20059;-76
2023/03/26 09:28:55;;;;;;;20.25;12.10;;;10.20;99.90;;;;;;6030979;29;20055;-78
2023/03/26 09:32:37;;;;;;;8.63;3.83;;;10.10;99.90;;;;;;6106141;29;20051;-76
2023/03/26 09:35:55;;;;;;;9.40;3.75;;;10.10;99.90;;;;;;6102977;29;20486;-76
2023/03/26 09:39:09;;;;;;;9.80;2.58;;;10.10;99.90;;;;;;6106015;29;20048;-77
2023/03/26 09:42:23;;;;;;;7.22;2.45;;;10.20;99.90;;;;;;6104166;29;20048;-77
2023/03/26 09:45:49;;;;;;;11.30;4.90;;;10.20;99.90;;;;;;6104643;29;20044;-77
2023/03/26 09:49:16;;;;;;;7.25;2.88;;;10.30;99.90;;;;;;6103768;29;20050;-79
2023/03/26 09:52:49;;;;;;;6.68;2.00;;;10.20;99.90;;;;;;6092274;29;20052;-78
2023/03/26 09:56:08;;;;;;;7.57;1.60;;;10.30;99.90;;;;;;6101080;29;20051;-78
2023/03/26 10:00:01;;;;;;;6.57;1.38;;;10.30;99.90;;;;;;6105429;29;20402;-78
2023/03/26 10:03:27;;;;;;;7.40;1.52;;;10.50;99.90;;;;;;6102248;29;20498;-76
2023/03/26 10:06:48;;;;;;;4.70;1.50;;;10.70;99.90;;;;;;6107559;29;20063;-76
2023/03/26 10:09:57;;;;;;;6.78;1.90;;;10.90;99.90;;;;;;6119602;29;20046;-75
2023/03/26 10:13:08;;;;;;;5.68;1.83;;;10.90;99.90;;;;;;6131380;29;20508;-76
2023/03/26 10:16:23;;;;;;;4.80;1.73;;;10.90;99.90;;;;;;6132057;29;20054;-76
2023/03/26 10:19:51;;;;;;;6.35;1.90;;;11.10;99.90;;;;;;6129810;29;20047;-76
2023/03/26 10:23:05;;;;;;;4.97;1.40;;;11.10;99.90;;;;;;6132621;29;20066;-75
2023/03/26 10:26:29;;;;;;;5.25;1.30;;;11.10;99.90;;;;;;6131431;29;20047;-77
2023/03/26 10:30:08;;;;;;;5.32;1.45;;;11.10;99.90;;;;;;6128323;29;20461;-75
2023/03/26 10:33:22;;;;;;;3.72;1.25;;;11.00;99.90;;;;;;6113127;29;20047;-76
2023/03/26 10:36:36;;;;;;;3.45;1.20;;;11.00;99.90;;;;;;6128594;29;20044;-76
2023/03/26 10:40:08;;;;;;;4.43;1.10;;;11.10;99.90;;;;;;6119364;29;20048;-76
2023/03/26 10:43:59;;;;;;;29.70;11.70;;;11.10;99.90;;;;;;6119824;29;20048;-75
2023/03/26 10:47:28;;;;;;;3.35;1.48;;;11.20;99.90;;;;;;6134315;29;20047;-78
2023/03/26 10:51:19;;;;;;;4.07;1.25;;;11.10;99.90;;;;;;6120897;29;20059;-75
2023/03/26 10:54:35;;;;;;;2.88;0.90;;;11.40;99.90;;;;;;6104160;29;20175;-77
2023/03/26 10:57:43;;;;;;;3.90;0.80;;;11.60;99.90;;;;;;6130083;29;20059;-78
2023/03/26 11:00:55;;;;;;;1.83;0.70;;;11.70;99.90;;;;;;6128185;29;20457;-75
2023/03/26 11:04:09;;;;;;;2.25;0.68;;;11.70;98.50;;;;;;6125285;29;20059;-77
2023/03/26 11:07:21;;;;;;;2.42;0.80;;;11.80;98.80;;;;;;6126259;29;20070;-79
2023/03/26 11:10:40;;;;;;;2.67;0.60;;;12.00;99.10;;;;;;6128454;29;20166;-78
2023/03/26 11:13:53;;;;;;;1.67;0.60;;;11.90;99.00;;;;;;6123542;29;20495;-79
2023/03/26 11:17:05;;;;;;;3.28;0.93;;;11.90;98.60;;;;;;6127404;29;20075;-76
2023/03/26 11:20:13;;;;;;;3.42;0.80;;;11.90;99.10;;;;;;6106318;29;20170;-77
2023/03/26 11:23:34;;;;;;;2.75;0.80;;;12.00;99.00;;;;;;6107949;29;20048;-79
2023/03/26 11:26:51;;;;;;;1.65;0.60;;;12.00;99.00;;;;;;6121421;29;20040;-77
2023/03/26 11:30:06;;;;;;;3.78;0.98;;;12.10;98.50;;;;;;6122780;29;20099;-80
2023/03/26 11:33:15;;;;;;;1.98;0.63;;;12.40;98.30;;;;;;6147119;29;20043;-78
2023/03/26 11:36:23;;;;;;;3.95;0.90;;;12.50;96.60;;;;;;6148455;29;20051;-78
2023/03/26 11:39:29;;;;;;;2.28;0.80;;;12.50;96.40;;;;;;6152431;29;20051;-76
2023/03/26 11:42:33;;;;;;;1.83;0.75;;;12.60;96.70;;;;;;6139158;29;20051;-74
2023/03/26 11:45:37;;;;;;;2.08;0.60;;;12.80;96.30;;;;;;6131938;29;20054;-79
2023/03/26 11:48:43;;;;;;;2.28;0.88;;;12.90;95.50;;;;;;6132984;29;20062;-76
2023/03/26 11:51:47;;;;;;;3.92;0.75;;;13.00;95.00;;;;;;6133105;29;20195;-76
2023/03/26 11:54:49;;;;;;;3.05;0.70;;;13.00;94.30;;;;;;6132418;29;20419;-77
2023/03/26 11:57:57;;;;;;;2.17;0.60;;;12.90;94.10;;;;;;6132486;29;20052;-78
2023/03/26 12:01:03;;;;;;;2.38;0.60;;;12.90;94.70;;;;;;6131237;29;20131;-78
2023/03/26 12:04:12;;;;;;;1.42;0.47;;;12.70;94.60;;;;;;6127655;29;20068;-76
2023/03/26 12:07:17;;;;;;;2.22;0.57;;;12.80;94.60;;;;;;6130764;29;20070;-77
2023/03/26 12:10:30;;;;;;;1.67;0.57;;;12.70;94.40;;;;;;6131151;29;20481;-76
2023/03/26 12:13:40;;;;;;;2.17;0.73;;;12.70;94.90;;;;;;6129920;29;20450;-75
2023/03/26 12:16:58;;;;;;;1.23;0.45;;;12.90;94.20;;;;;;6131889;29;20320;-76
2023/03/26 12:20:01;;;;;;;2.40;0.77;;;13.00;94.90;;;;;;6130600;29;20520;-77
2023/03/26 12:23:07;;;;;;;3.25;0.73;;;13.20;93.80;;;;;;6126323;29;20048;-76
2023/03/26 12:26:16;;;;;;;3.17;0.80;;;13.30;93.60;;;;;;6130851;29;20052;-76
2023/03/26 12:29:19;;;;;;;3.10;0.80;;;13.50;93.50;;;;;;6115062;29;20060;-78
2023/03/26 12:32:22;;;;;;;2.70;0.60;;;13.80;92.90;;;;;;6107478;29;20135;-74
2023/03/26 12:35:28;;;;;;;2.15;0.60;;;14.00;90.90;;;;;;6129488;29;20568;-77
2023/03/26 12:38:36;;;;;;;3.58;0.82;;;14.00;91.10;;;;;;6129960;29;20070;-75
2023/03/26 12:41:41;;;;;;;5.20;1.00;;;13.70;88.40;;;;;;6131300;29;20062;-75
2023/03/26 12:44:46;;;;;;;2.65;0.80;;;13.50;87.60;;;;;;6129826;29;20095;-75
2023/03/26 12:47:49;;;;;;;3.35;0.82;;;13.30;87.70;;;;;;6141832;29;20059;-75
2023/03/26 12:51:07;;;;;;;3.03;0.90;;;13.60;89.00;;;;;;6152859;29;20082;-77
2023/03/26 12:54:34;;;;;;;1.92;0.70;;;13.60;88.90;;;;;;6139049;29;20052;-78
2023/03/26 12:57:39;;;;;;;4.03;0.82;;;13.60;84.60;;;;;;6127341;29;20051;-78
2023/03/26 13:00:56;;;;;;;2.22;0.85;;;13.80;84.60;;;;;;6125032;29;20059;-77
2023/03/26 13:04:35;;;;;;;2.92;0.88;;;13.90;84.10;;;;;;6108587;29;20060;-78
2023/03/26 13:07:53;;;;;;;2.88;0.90;;;14.30;81.60;;;;;;6106848;29;20155;-77
2023/03/26 13:11:01;;;;;;;4.65;0.77;;;14.30;75.50;;;;;;6123988;29;20078;-79
2023/03/26 13:14:16;;;;;;;3.20;0.90;;;14.40;75.40;;;;;;6135824;29;20051;-78
2023/03/26 13:17:27;;;;;;;1.77;0.60;;;14.50;74.80;;;;;;6139737;29;20063;-75
2023/03/26 13:20:47;;;;;;;3.35;0.90;;;15.00;74.90;;;;;;6132628;29;20067;-77
2023/03/26 13:23:55;;;;;;;5.07;0.88;;;15.50;73.30;;;;;;6129521;29;20063;-74
2023/03/26 13:27:16;;;;;;;3.35;0.80;;;15.50;69.30;;;;;;6115061;29;20127;-77
2023/03/26 13:30:27;;;;;;;3.30;0.80;;;15.50;65.30;;;;;;6130514;29;20130;-77
2023/03/26 13:33:41;;;;;;;2.97;0.80;;;15.80;68.10;;;;;;6129292;29;20422;-76
2023/03/26 13:36:48;;;;;;;;;;;16.00;67.20;;;;;;6129893;29;20047;-77
2023/03/26 13:40:05;;;;;;;3.33;0.70;;;16.00;65.10;;;;;;6122551;29;19934;-78
2023/03/26 13:43:29;;;;;;;3.35;0.80;;;15.90;64.50;;;;;;6124607;29;20052;-77
2023/03/26 13:46:35;;;;;;;2.92;0.73;;;15.70;65.60;;;;;;6127769;29;20052;-75
2023/03/26 13:49:43;;;;;;;2.10;0.60;;;15.60;65.90;;;;;;6128386;29;20063;-74
2023/03/26 13:52:51;;;;;;;3.17;0.75;;;15.30;65.80;;;;;;6126944;29;20051;-76
2023/03/26 13:55:57;;;;;;;3.22;0.80;;;15.00;68.20;;;;;;6104832;29;20139;-76
2023/03/26 13:59:03;;;;;;;3.03;0.93;;;15.10;68.90;;;;;;6103184;29;20191;-78
2023/03/26 14:02:11;;;;;;;3.38;0.80;;;15.40;69.40;;;;;;6113111;29;20056;-75
2023/03/26 14:05:21;;;;;;;3.25;1.00;;;15.90;70.70;;;;;;6106034;29;20054;-74
2023/03/26 14:08:31;;;;;;;1.90;0.85;;;15.80;69.60;;;;;;6113589;29;20047;-76
2023/03/26 14:11:48;;;;;;;2.50;0.70;;;15.60;70.00;;;;;;6140851;29;20048;-80
2023/03/26 14:14:55;;;;;;;2.55;0.80;;;15.40;70.30;;;;;;6140572;29;20437;-79
2023/03/26 14:18:06;;;;;;;2.42;0.85;;;15.00;71.10;;;;;;6134984;29;20055;-78
2023/03/26 14:21:41;;;;;;;3.40;0.80;;;14.60;72.90;;;;;;6128399;29;20070;-78
2023/03/26 14:25:10;;;;;;;3.40;0.90;;;14.80;74.60;;;;;;6106070;29;20187;-78
2023/03/26 14:28:35;;;;;;;3.63;0.90;;;14.90;75.10;;;;;;6116842;29;20055;-77
2023/03/26 14:31:43;;;;;;;3.42;0.90;;;15.10;74.90;;;;;;6133399;29;20055;-78
2023/03/26 14:35:24;;;;;;;3.75;1.00;;;14.90;75.80;;;;;;6123864;29;20067;-75
2023/03/26 14:39:26;;;;;;;3.75;0.95;;;14.80;76.30;;;;;;6107228;29;20054;-79
2023/03/26 14:42:36;;;;;;;;;;;14.70;75.40;;;;;;6085496;29;20135;-79
2023/03/26 14:46:03;;;;;;;4.72;0.90;;;14.40;76.50;;;;;;6132836;29;20005;-78
2023/03/26 14:49:29;;;;;;;4.03;1.00;;;14.10;75.30;;;;;;6129513;29;20067;-77
2023/03/26 14:52:45;;;;;;;3.72;0.90;;;13.70;78.20;;;;;;6119237;29;20052;-77
2023/03/26 14:56:29;;;;;;;5.22;1.05;;;13.10;81.70;;;;;;6123102;29;20509;-77
2023/03/26 15:00:30;;;;;;;2.72;0.60;;;12.80;84.00;;;;;;6121548;29;20052;-76
2023/03/26 15:04:52;;;;;;;3.47;0.80;;;12.40;85.00;;;;;;6133317;29;20070;-78
2023/03/26 15:08:33;;;;;;;4.55;0.70;;;12.20;88.20;;;;;;6117216;29;20056;-79
2023/03/26 15:11:48;;;;;;;3.50;0.97;;;11.90;90.20;;;;;;6131559;29;20052;-77
2023/03/26 15:15:30;;;;;;;3.85;0.88;;;11.90;90.90;;;;;;6148921;29;20058;-78
2023/03/26 15:19:43;;;;;;;4.28;0.93;;;11.90;91.40;;;;;;6125630;29;20068;-76
2023/03/26 15:23:35;;;;;;;3.55;0.90;;;11.80;91.80;;;;;;6118397;29;20052;-77
2023/03/26 15:27:37;;;;;;;;;;;11.70;92.20;;;;;;6100864;29;20047;-79
2023/03/26 15:31:30;;;;;;;3.10;0.90;;;11.70;92.50;;;;;;6127641;29;20128;-78
2023/03/26 15:35:28;;;;;;;4.57;0.95;;;11.60;93.40;;;;;;6101527;29;20487;-78
2023/03/26 15:38:56;;;;;;;4.40;0.90;;;11.60;92.70;;;;;;6104999;29;20044;-78
2023/03/26 15:42:10;;;;;;;2.42;0.80;;;11.60;93.60;;;;;;6106778;29;20529;-76
2023/03/26 15:45:35;;;;;;;4.90;0.70;;;11.20;92.90;;;;;;6127356;29;20398;-77
2023/03/26 15:49:00;;;;;;;4.40;1.40;;;11.00;92.90;;;;;;6130122;29;20044;-80
2023/03/26 15:52:16;;;;;;;4.57;1.10;;;10.90;94.10;;;;;;6129868;29;20434;-78
2023/03/26 15:55:30;;;;;;;3.90;1.15;;;10.90;96.20;;;;;;6127595;29;20565;-78
2023/03/26 15:58:44;;;;;;;2.58;0.85;;;10.60;98.80;;;;;;6127323;29;20055;-78
2023/03/26 16:02:01;;;;;;;3.80;0.82;;;10.50;99.90;;;;;;6129619;29;20136;-78
2023/03/26 16:05:26;;;;;;;6.93;1.98;;;10.40;99.90;;;;;;6127431;29;20382;-78
2023/03/26 16:08:37;;;;;;;5.35;1.40;;;10.40;99.90;;;;;;6129559;29;20228;-78
2023/03/26 16:11:50;;;;;;;3.30;0.85;;;10.20;99.90;;;;;;6129666;29;20412;-75
2023/03/26 16:15:23;;;;;;;2.85;0.68;;;9.90;99.90;;;;;;6128367;29;20070;-77
2023/03/26 16:18:33;;;;;;;2.42;0.70;;;10.00;99.90;;;;;;6112106;29;20052;-78
2023/03/26 16:21:54;;;;;;;1.77;0.52;;;10.10;99.90;;;;;;6129219;29;20059;-77
2023/03/26 16:25:26;;;;;;;3.03;0.50;;;10.00;99.90;;;;;;6129194;29;20052;-77
2023/03/26 16:28:32;;;;;;;4.00;0.77;;;10.30;99.90;;;;;;6127384;29;20056;-80
2023/03/26 16:31:36;;;;;;;2.50;0.70;;;10.30;99.90;;;;;;6128363;29;20052;-78
2023/03/26 16:34:46;;;;;;;3.35;0.80;;;10.90;99.90;;;;;;6121839;29;20048;-78
2023/03/26 16:37:50;;;;;;;3.67;0.80;;;12.00;99.50;;;;;;6119516;29;20051;-77
2023/03/26 16:41:03;;;;;;;2.70;0.60;;;11.90;98.20;;;;;;6127803;29;20231;-76
2023/03/26 16:44:15;;;;;;;2.75;0.75;;;12.00;97.40;;;;;;6126848;29;20543;-77
2023/03/26 16:47:28;;;;;;;1.65;0.50;;;11.70;97.60;;;;;;6104365;29;20068;-77
2023/03/26 16:50:43;;;;;;;2.47;0.57;;;11.10;97.50;;;;;;6104576;29;20052;-78
2023/03/26 16:53:52;;;;;;;1.50;0.60;;;10.50;98.50;;;;;;6125388;29;20051;-79
2023/03/26 16:57:01;;;;;;;2.53;0.95;;;10.50;99.70;;;;;;6128014;29;20047;-77
2023/03/26 17:00:31;;;;;;;2.03;0.70;;;10.40;99.60;;;;;;6126914;29;20058;-78
2023/03/26 17:03:44;;;;;;;3.10;0.80;;;10.30;99.30;;;;;;6126823;29;20413;-77
2023/03/26 17:07:00;;;;;;;;;;;10.40;99.50;;;;;;6125588;29;20398;-76
2023/03/26 17:10:15;;;;;;;3.08;0.85;;;10.60;98.40;;;;;;6125838;29;20147;-76
2023/03/26 17:13:23;;;;;;;1.85;0.60;;;10.90;97.70;;;;;;6122100;29;20087;-78
2023/03/26 17:16:32;;;;;;;1.75;0.70;;;10.70;97.50;;;;;;6127910;29;20063;-79
2023/03/26 17:19:44;;;;;;;2.38;0.75;;;10.30;98.60;;;;;;6127171;29;20060;-79
2023/03/26 17:22:53;;;;;;;2.40;0.65;;;10.20;99.00;;;;;;6125159;29;20054;-79
2023/03/26 17:26:04;;;;;;;2.38;0.50;;;10.20;98.70;;;;;;6110810;29;20523;-76
2023/03/26 17:29:26;;;;;;;1.98;0.60;;;9.80;98.90;;;;;;6127489;29;20151;-76
2023/03/26 17:32:55;;;;;;;2.63;0.70;;;9.70;99.00;;;;;;6127881;29;20055;-77
2023/03/26 17:36:28;;;;;;;1.27;0.40;;;9.40;99.10;;;;;;6127156;29;20107;-78
2023/03/26 17:40:36;;;;;;;;;;;9.40;99.50;;;;;;6110626;29;20167;-78
2023/03/26 17:43:44;;;;;;;1.58;0.50;;;9.40;99.20;;;;;;6120917;29;19938;-76
2023/03/26 17:46:47;;;;;;;1.55;0.40;;;9.20;99.70;;;;;;6125996;29;20204;-78
2023/03/26 17:49:55;;;;;;;2.67;0.70;;;9.20;99.90;;;;;;6126593;29;20466;-78
2023/03/26 17:53:01;;;;;;;1.63;0.65;;;9.10;99.90;;;;;;6117450;29;20052;-78
2023/03/26 17:56:12;;;;;;;2.13;0.80;;;9.10;99.90;;;;;;6103512;29;20088;-79
2023/03/26 17:59:22;;;;;;;1.77;0.75;;;9.10;99.90;;;;;;6122471;29;20421;-79
2023/03/26 18:02:35;;;;;;;10.40;4.00;;;9.10;99.90;;;;;;6101761;29;20072;-76
2023/03/26 18:05:39;;;;;;;13.38;5.28;;;9.10;99.90;;;;;;6100394;29;20052;-83
2023/03/26 18:09:00;;;;;;;3.53;1.10;;;9.00;99.90;;;;;;6115210;29;20056;-79
2023/03/26 18:12:26;;;;;;;2.33;0.73;;;8.80;99.90;;;;;;6119971;29;20056;-82
2023/03/26 18:15:39;;;;;;;2.35;0.85;;;8.90;99.90;;;;;;6103637;29;20052;-80
2023/03/26 18:18:48;;;;;;;2.38;0.70;;;8.90;99.90;;;;;;6126165;29;20190;-80
2023/03/26 18:21:52;;;;;;;1.90;0.70;;;8.90;99.90;;;;;;6128305;29;20052;-82
2023/03/26 18:24:58;;;;;;;2.85;0.80;;;8.90;99.90;;;;;;6122810;29;20048;-77
2023/03/26 18:28:01;;;;;;;3.55;0.90;;;8.90;99.90;;;;;;6110622;29;20052;-80
2023/03/26 18:31:17;;;;;;;1.88;0.70;;;8.90;99.90;;;;;;6119101;29;20494;-78
2023/03/26 18:34:20;;;;;;;2.05;0.75;;;8.90;99.90;;;;;;6123349;29;20308;-77
2023/03/26 18:37:24;;;;;;;2.38;0.93;;;8.90;99.90;;;;;;6130597;29;20397;-77
2023/03/26 18:40:32;;;;;;;1.90;0.50;;;8.80;99.90;;;;;;6128218;29;20087;-77
2023/03/26 18:43:35;;;;;;;1.40;0.50;;;8.80;99.90;;;;;;6102143;29;20052;-78
2023/03/26 18:46:38;;;;;;;1.80;0.70;;;8.80;99.90;;;;;;6116020;29;20050;-77
2023/03/26 18:49:42;;;;;;;2.50;1.00;;;8.80;99.90;;;;;;6124342;29;20764;-78
2023/03/26 18:52:45;;;;;;;6.78;3.20;;;8.90;99.90;;;;;;6124564;29;20055;-80
2023/03/26 18:55:50;;;;;;;2.55;1.00;;;8.80;99.90;;;;;;6124965;29;20058;-78
2023/03/26 18:58:52;;;;;;;2.47;0.82;;;8.90;99.90;;;;;;6128392;29;20051;-75
2023/03/26 19:01:57;;;;;;;2.78;0.85;;;8.80;99.90;;;;;;6128793;29;20066;-74
2023/03/26 19:05:03;;;;;;;4.97;1.00;;;8.80;99.90;;;;;;6126545;29;20072;-78
2023/03/26 19:08:06;;;;;;;2.92;1.00;;;8.80;99.90;;;;;;6127790;29;20055;-77
2023/03/26 19:11:11;;;;;;;2.00;0.80;;;8.80;99.90;;;;;;6120394;29;20148;-78
2023/03/26 19:14:20;;;;;;;2.80;0.93;;;8.80;99.90;;;;;;6107597;29;20056;-77
2023/03/26 19:17:24;;;;;;;2.15;0.80;;;8.80;99.90;;;;;;6122205;29;20051;-76
2023/03/26 19:20:30;;;;;;;3.80;1.08;;;8.70;99.90;;;;;;6130153;29;20048;-76
2023/03/26 19:23:36;;;;;;;1.73;0.73;;;8.80;99.90;;;;;;6141040;29;20058;-77
2023/03/26 19:26:39;;;;;;;2.95;0.93;;;8.70;99.90;;;;;;6126659;29;20415;-78
2023/03/26 19:29:43;;;;;;;2.70;1.00;;;8.60;99.90;;;;;;6122990;29;20056;-78
2023/03/26 19:32:52;;;;;;;;;;;8.60;99.90;;;;;;6108441;29;20059;-79
2023/03/26 19:36:03;;;;;;;1.92;0.80;;;8.60;99.90;;;;;;6120786;29;20098;-75
2023/03/26 19:39:12;;;;;;;1.58;0.60;;;8.50;99.90;;;;;;6106946;29;20055;-75
2023/03/26 19:42:21;;;;;;;2.47;0.70;;;8.40;99.90;;;;;;6127435;29;20066;-78
2023/03/26 19:45:25;;;;;;;2.10;0.70;;;8.30;99.90;;;;;;6127660;29;20090;-77
2023/03/26 19:48:34;;;;;;;2.15;0.90;;;8.30;99.90;;;;;;6127801;29;20051;-78
2023/03/26 19:51:37;;;;;;;4.25;1.83;;;8.20;99.90;;;;;;6127522;29;20060;-81
2023/03/26 19:54:53;;;;;;;7.17;2.77;;;8.10;99.90;;;;;;6123561;29;20498;-80
2023/03/26 19:57:56;;;;;;;6.90;2.42;;;8.10;99.90;;;;;;6105314;29;20403;-77
2023/03/26 20:01:01;;;;;;;2.47;0.80;;;8.10;99.90;;;;;;6124909;29;20056;-78
2023/03/26 20:04:06;;;;;;;3.67;1.00;;;8.00;99.90;;;;;;6126259;29;20055;-76
2023/03/26 20:07:13;;;;;;;2.05;0.80;;;8.00;99.90;;;;;;6124424;29;20051;-77
2023/03/26 20:10:16;;;;;;;2.05;0.88;;;8.00;99.90;;;;;;6117971;29;20051;-76
2023/03/26 20:13:19;;;;;;;2.25;0.93;;;8.00;99.90;;;;;;6127323;29;20058;-78
2023/03/26 20:16:25;;;;;;;1.83;0.75;;;8.00;99.90;;;;;;6127831;29;20062;-80
2023/03/26 20:19:28;;;;;;;2.40;0.80;;;8.00;99.90;;;;;;6127016;29;20158;-78
2023/03/26 20:22:32;;;;;;;1.27;0.52;;;8.00;99.90;;;;;;6122804;29;20063;-80
2023/03/26 20:25:34;;;;;;;2.03;0.60;;;8.00;99.90;;;;;;6107526;29;20414;-79
2023/03/26 20:28:37;;;;;;;1.67;0.73;;;8.00;99.90;;;;;;6126968;29;20183;-76
2023/03/26 20:31:41;;;;;;;2.17;0.80;;;8.00;99.90;;;;;;6126201;29;20433;-77
2023/03/26 20:34:43;;;;;;;1.95;0.70;;;8.00;99.90;;;;;;6126798;29;20043;-78
2023/03/26 20:37:45;;;;;;;1.90;0.80;;;7.90;99.90;;;;;;6125547;29;20484;-75
2023/03/26 20:40:47;;;;;;;2.55;0.80;;;8.00;99.90;;;;;;6126433;29;20058;-75
2023/03/26 20:43:52;;;;;;;1.65;0.70;;;7.90;99.90;;;;;;6127314;29;20055;-78
2023/03/26 20:46:55;;;;;;;4.10;0.90;;;7.90;99.90;;;;;;6126830;29;20062;-77
2023/03/26 20:49:57;;;;;;;2.22;0.60;;;7.90;99.90;;;;;;6125028;29;21716;-78
2023/03/26 20:53:01;;;;;;;1.92;0.70;;;7.80;99.90;;;;;;6127608;29;20059;-77
2023/03/26 20:56:03;;;;;;;1.50;0.57;;;7.80;99.90;;;;;;6119102;29;20055;-77
2023/03/26 20:59:06;;;;;;;2.75;0.93;;;7.80;99.90;;;;;;6106902;29;20056;-78
2023/03/26 21:02:11;;;;;;;1.92;0.80;;;7.80;99.90;;;;;;6114809;29;20516;-80
2023/03/26 21:05:14;;;;;;;1.77;0.70;;;7.80;99.90;;;;;;6115646;29;20048;-79
2023/03/26 21:08:19;;;;;;;1.55;0.60;;;7.70;99.90;;;;;;6103128;29;20172;-78
2023/03/26 21:11:39;;;;;;;2.08;0.65;;;7.80;99.90;;;;;;6102567;29;20055;-80
2023/03/26 21:14:43;;;;;;;2.53;0.80;;;7.90;99.90;;;;;;6111718;29;20047;-79
2023/03/26 21:17:46;;;;;;;2.25;0.70;;;7.80;99.90;;;;;;6111727;29;20052;-80
2023/03/26 21:21:00;;;;;;;1.95;0.70;;;7.80;99.90;;;;;;6122555;29;20051;-80
2023/03/26 21:24:06;;;;;;;;;;;7.90;99.90;;;;;;6124123;29;20070;-81
2023/03/26 21:27:18;;;;;;;2.17;0.80;;;7.90;99.90;;;;;;6128066;29;19922;-80
2023/03/26 21:30:22;;;;;;;2.85;0.70;;;7.90;99.90;;;;;;6128627;29;20074;-78
2023/03/26 21:33:24;;;;;;;2.25;0.80;;;7.80;99.90;;;;;;6129042;29;20064;-80
2023/03/26 21:36:27;;;;;;;2.28;0.85;;;7.70;99.90;;;;;;6128372;29;20058;-81
2023/03/26 21:39:29;;;;;;;3.88;0.80;;;7.70;99.90;;;;;;6127214;29;20050;-78
2023/03/26 21:42:32;;;;;;;2.40;0.70;;;7.70;99.90;;;;;;6129244;29;20063;-78
2023/03/26 21:45:37;;;;;;;3.08;0.75;;;7.70;99.90;;;;;;6128561;29;20059;-77
2023/03/26 21:48:39;;;;;;;4.63;0.82;;;7.70;99.90;;;;;;6130193;29;20047;-77
2023/03/26 21:51:42;;;;;;;2.55;0.68;;;7.70;99.90;;;;;;6128436;29;20082;-79
2023/03/26 21:54:45;;;;;;;1.52;0.50;;;7.70;99.90;;;;;;6127888;29;20051;-79